createdAt,value
2017-09-28T09:24:12.371Z,99.90
2017-09-28T09:26:40.670Z,99.90
2017-09-28T09:29:14.405Z,99.90
2017-09-28T09:31:42.721Z,99.90
2017-09-28T09:34:11.023Z,99.90
2017-09-28T09:36:39.650Z,99.90
2017-09-28T09:39:07.916Z,99.90
2017-09-28T09:41:36.208Z,99.90
2017-09-28T09:44:05.320Z,99.90
2017-09-28T09:46:34.398Z,99.90
2017-09-28T09:49:03.060Z,99.90
2017-09-28T09:51:31.345Z,99.90
2017-09-28T09:53:59.667Z,99.90
2017-09-28T09:56:29.227Z,99.90
2017-09-28T09:58:57.559Z,99.90
2017-09-28T10:01:25.858Z,99.90
2017-09-28T10:03:54.207Z,99.90
2017-09-28T10:06:25.601Z,99.90
2017-09-28T10:09:06.696Z,99.60
2017-09-28T10:12:07.478Z,97.50
2017-09-28T10:15:08.991Z,97.40
2017-09-28T10:17:39.299Z,96.00
2017-09-28T10:20:07.616Z,96.00
2017-09-28T10:22:36.197Z,94.90
2017-09-28T10:25:04.528Z,94.10
2017-09-28T10:27:33.138Z,92.40
2017-09-28T10:30:01.761Z,90.90
2017-09-28T10:32:30.068Z,85.80
2017-09-28T10:34:59.118Z,80.10
2017-09-28T10:37:27.407Z,79.90
2017-09-28T10:39:55.748Z,73.40
2017-09-28T10:42:25.106Z,64.40
2017-09-28T10:44:53.493Z,64.20
2017-09-28T10:47:21.818Z,61.10
2017-09-28T10:49:50.451Z,57.00
2017-09-28T10:52:18.775Z,55.10
2017-09-28T10:54:47.822Z,53.20
2017-09-28T10:57:16.152Z,53.20
2017-09-28T10:59:45.331Z,49.50
2017-09-28T11:02:13.925Z,49.40
2017-09-28T11:04:42.199Z,48.30
2017-09-28T11:07:10.887Z,48.70
2017-09-28T11:09:39.458Z,50.10
2017-09-28T11:12:07.756Z,50.10
2017-09-28T11:14:37.140Z,51.00
2017-09-28T11:17:05.426Z,51.60
2017-09-28T11:19:33.776Z,54.90
2017-09-28T11:22:03.116Z,56.60
2017-09-28T11:24:31.438Z,56.50
2017-09-28T11:27:00.497Z,53.30
2017-09-28T11:29:29.097Z,53.30
2017-09-28T11:31:58.883Z,51.20
2017-09-28T11:34:27.160Z,51.20
2017-09-28T11:36:55.480Z,49.80
2017-09-28T11:39:24.052Z,49.30
2017-09-28T11:41:52.356Z,49.60
2017-09-28T11:44:20.668Z,49.70
2017-09-28T11:46:48.967Z,48.10
2017-09-28T11:49:17.277Z,46.50
2017-09-28T11:51:45.581Z,45.50
2017-09-28T11:54:13.876Z,46.80
2017-09-28T11:56:42.207Z,49.10
2017-09-28T11:59:10.508Z,49.50
2017-09-28T12:01:38.913Z,51.30
2017-09-28T12:04:07.284Z,49.70
2017-09-28T12:06:36.845Z,45.30
2017-09-28T12:09:06.534Z,43.60
2017-09-28T12:11:35.427Z,43.50
2017-09-28T12:14:05.639Z,42.20
2017-09-28T12:16:33.951Z,42.80
2017-09-28T12:19:02.339Z,42.40
2017-09-28T12:21:30.643Z,43.20
2017-09-28T12:23:59.200Z,43.70
2017-09-28T12:26:28.260Z,43.20
2017-09-28T12:28:56.556Z,42.80
2017-09-28T12:31:24.924Z,43.00
2017-09-28T12:33:53.222Z,43.20
2017-09-28T12:36:22.328Z,43.00
2017-09-28T12:38:51.002Z,43.40
2017-09-28T12:41:19.381Z,43.40
2017-09-28T12:43:48.094Z,43.70
2017-09-28T12:46:16.770Z,42.70
2017-09-28T12:48:45.100Z,41.90
2017-09-28T12:51:13.418Z,42.10
2017-09-28T12:53:41.773Z,43.30
2017-09-28T12:56:10.142Z,44.30
2017-09-28T12:58:39.228Z,48.30
2017-09-28T13:01:08.303Z,47.20
2017-09-28T13:03:37.009Z,47.20
2017-09-28T13:06:05.335Z,46.50
2017-09-28T13:08:33.634Z,45.00
2017-09-28T13:11:02.974Z,45.00
2017-09-28T13:13:32.075Z,44.90
2017-09-28T13:16:00.350Z,46.00
2017-09-28T13:18:28.958Z,47.40
2017-09-28T13:20:58.514Z,49.20
2017-09-28T13:23:26.933Z,49.20
2017-09-28T13:25:55.236Z,49.90
2017-09-28T13:38:23.756Z,55.20
2017-09-28T13:40:53.168Z,56.40
2017-09-28T13:43:21.486Z,57.40
2017-09-28T13:45:50.582Z,59.80
2017-09-28T13:48:18.920Z,59.80
2017-09-28T13:50:47.212Z,61.90
2017-09-28T13:53:15.515Z,63.70
2017-09-28T13:55:43.814Z,65.00
2017-09-28T13:58:12.166Z,66.10
2017-09-28T14:00:40.475Z,68.60
2017-09-28T14:03:08.789Z,69.40
2017-09-28T14:05:37.092Z,71.00
2017-09-28T14:08:06.330Z,70.80
2017-09-28T14:10:34.619Z,72.10
2017-09-28T14:13:03.726Z,75.10
2017-09-28T14:18:02.789Z,79.10
2017-09-28T14:20:31.383Z,83.10
2017-09-28T14:23:00.021Z,86.90
2017-09-28T14:28:06.719Z,91.00
2017-09-28T14:30:35.827Z,94.90
2017-09-28T14:33:04.904Z,96.40
2017-09-28T14:35:34.717Z,97.70
2017-09-28T14:38:03.409Z,97.60
2017-09-28T14:50:31.569Z,98.80
2017-09-28T14:53:01.295Z,99.30
2017-09-28T14:55:29.568Z,99.70
2017-09-28T14:57:58.320Z,99.90
2017-09-28T15:00:26.665Z,98.90
2017-09-28T15:02:54.946Z,98.80
2017-09-28T15:05:24.053Z,98.90
2017-09-28T15:07:53.123Z,99.70
2017-09-28T15:12:51.300Z,99.90
